Time;durP1;ratioP1;P1;durP2;ratioP2;P2;SDS_P1;SDS_P2;PMS_P1;PMS_P2;Temp;Humidity;BMP_temperature;BMP_pressure;BME280_temperature;BME280_humidity;BME280_pressure;Samples;Min_cycle;Max_cycle;Signal;HPM_P1;HPM_P2
2023/04/18 00:01:28;;;;;;;14.68;9.25;;;;;;;-144.57;100.00;62443.72;5072130;28;20044;-75
2023/04/18 00:03:54;;;;;;;17.35;9.82;;;;;;;-144.57;100.00;62443.72;5071183;28;20137;-75
2023/04/18 00:06:21;;;;;;;14.32;9.18;;;;;;;-144.57;100.00;62443.72;5071304;28;20128;-75
2023/04/18 00:08:48;;;;;;;15.88;9.13;;;;;;;-144.57;100.00;62443.72;5054424;28;20052;-75
2023/04/18 00:11:14;;;;;;;15.77;9.38;;;;;;;-144.57;100.00;62443.72;5037730;28;20109;-76
2023/04/18 00:13:39;;;;;;;14.30;9.32;;;;;;;-144.57;100.00;62443.72;5070818;28;20444;-76
2023/04/18 00:16:07;;;;;;;13.32;9.00;;;;;;;-144.57;100.00;62443.72;5070428;28;20038;-74
2023/04/18 00:18:35;;;;;;;13.90;8.45;;;;;;;-144.57;100.00;62443.72;5053755;28;20060;-75
2023/04/18 00:21:02;;;;;;;16.30;9.52;;;;;;;-144.57;100.00;62443.72;5053979;28;20036;-71
2023/04/18 00:23:29;;;;;;;23.38;9.95;;;;;;;-144.57;100.00;62443.72;5070548;28;20049;-75
2023/04/18 00:25:54;;;;;;;12.43;8.70;;;;;;;-144.57;100.00;62443.72;5070739;28;20040;-73
2023/04/18 00:28:21;;;;;;;18.90;9.55;;;;;;;-144.57;100.00;62443.72;5071543;28;20071;-74
2023/04/18 00:30:47;;;;;;;18.70;11.02;;;;;;;-144.57;100.00;62443.72;5020770;28;20498;-72
2023/04/18 00:33:13;;;;;;;21.80;11.32;;;;;;;-144.57;100.00;62443.72;5070156;28;20300;-75
2023/04/18 00:35:39;;;;;;;16.30;11.05;;;;;;;-144.57;100.00;62443.72;5036995;28;20086;-75
2023/04/18 00:38:06;;;;;;;17.05;11.40;;;;;;;-144.57;100.00;62443.72;5070539;28;20041;-76
2023/04/18 00:40:32;;;;;;;21.33;11.60;;;;;;;-144.57;100.00;62443.72;5067368;28;20159;-76
2023/04/18 00:42:58;;;;;;;15.80;9.75;;;;;;;-144.57;100.00;62443.72;5017139;28;20049;-75
2023/04/18 00:45:25;;;;;;;21.90;9.93;;;;;;;-144.57;100.00;62443.72;5017141;28;20050;-76
2023/04/18 00:47:51;;;;;;;18.38;9.95;;;;;;;-144.57;100.00;62443.72;5051447;28;20045;-75
2023/04/18 00:50:17;;;;;;;18.83;10.25;;;;;;;-144.57;100.00;62443.72;5033277;28;20033;-75
2023/04/18 00:52:43;;;;;;;16.95;9.55;;;;;;;-144.57;100.00;62443.72;5050333;28;20041;-77
2023/04/18 00:55:10;;;;;;;23.38;12.25;;;;;;;-144.57;100.00;62443.72;5033775;28;20155;-73
2023/04/18 00:57:36;;;;;;;21.15;12.60;;;;;;;-144.57;100.00;62443.72;5049666;28;20123;-74
2023/04/18 01:00:09;;;;;;;18.10;10.10;;;;;;;-144.57;100.00;62443.72;5017080;28;20141;-75
2023/04/18 01:02:36;;;;;;;21.48;10.80;;;;;;;-144.57;100.00;62443.72;5082842;28;20068;-73
2023/04/18 01:05:03;;;;;;;24.30;13.02;;;;;;;-144.57;100.00;62443.72;5049527;28;20044;-73
2023/04/18 01:07:32;;;;;;;24.30;13.85;;;;;;;-144.57;100.00;62443.72;5050714;28;20509;-74
2023/04/18 01:09:59;;;;;;;24.23;12.95;;;;;;;-144.57;100.00;62443.72;5049706;28;20064;-74
2023/04/18 01:12:24;;;;;;;20.42;10.73;;;;;;;-144.57;100.00;62443.72;5049460;28;20521;-74
2023/04/18 01:14:53;;;;;;;35.25;17.52;;;;;;;-144.57;100.00;62443.72;5033638;28;20045;-75
2023/04/18 01:17:19;;;;;;;29.38;15.85;;;;;;;-144.57;100.00;62443.72;5065553;28;20557;-74
2023/04/18 01:19:48;;;;;;;21.98;12.23;;;;;;;-144.57;100.00;62443.72;5049447;28;20049;-73
2023/04/18 01:22:16;;;;;;;42.13;20.15;;;;;;;-144.57;100.00;62443.72;5083059;28;20073;-75
2023/04/18 01:24:42;;;;;;;23.05;12.25;;;;;;;-144.57;100.00;62443.72;5033133;28;20052;-73
2023/04/18 01:27:13;;;;;;;49.10;24.33;;;;;;;-144.57;100.00;62443.72;5049701;28;20123;-74
2023/04/18 01:29:39;;;;;;;42.97;22.15;;;;;;;-144.57;100.00;62443.72;5049507;28;20052;-74
2023/04/18 01:32:05;;;;;;;20.00;11.93;;;;;;;-144.57;100.00;62443.72;5033252;28;20041;-74
2023/04/18 01:34:31;;;;;;;20.25;10.40;;;;;;;-144.57;100.00;62443.72;5033137;28;20059;-74
2023/04/18 01:36:58;;;;;;;16.08;10.07;;;;;;;-144.57;100.00;62443.72;5051145;28;20040;-74
2023/04/18 01:39:24;;;;;;;17.92;9.63;;;;;;;-144.57;100.00;62443.72;5066722;28;20048;-76
2023/04/18 01:41:51;;;;;;;15.55;9.68;;;;;;;-144.57;100.00;62443.72;5032892;28;20080;-73
2023/04/18 01:44:18;;;;;;;17.77;9.45;;;;;;;-144.57;100.00;62443.72;5016980;28;20045;-74
2023/04/18 01:46:45;;;;;;;16.77;9.68;;;;;;;-144.57;100.00;62443.72;5066246;28;20057;-73
2023/04/18 01:49:12;;;;;;;14.02;9.45;;;;;;;-144.57;100.00;62443.72;5049618;28;20099;-74
2023/04/18 01:51:38;;;;;;;14.45;9.20;;;;;;;-144.57;100.00;62443.72;5049319;28;20556;-74
2023/04/18 01:54:04;;;;;;;15.50;9.27;;;;;;;-144.57;100.00;62443.72;5049441;28;20053;-73
2023/04/18 01:56:30;;;;;;;14.13;8.27;;;;;;;-144.57;100.00;62443.72;5049458;28;20045;-76
2023/04/18 01:58:58;;;;;;;15.13;8.82;;;;;;;-144.57;100.00;62443.72;5033535;28;20506;-73
2023/04/18 02:01:25;;;;;;;16.45;9.82;;;;;;;-144.57;100.00;62443.72;5032806;28;20041;-76
2023/04/18 02:03:51;;;;;;;13.70;9.27;;;;;;;-144.57;100.00;62443.72;5031965;28;20044;-74
2023/04/18 02:06:18;;;;;;;14.90;9.93;;;;;;;-144.57;100.00;62443.72;5049304;28;20045;-72
2023/04/18 02:08:47;;;;;;;14.35;9.05;;;;;;;-144.57;100.00;62443.72;5065413;28;20084;-74
2023/04/18 02:11:12;;;;;;;16.30;9.07;;;;;;;-144.57;100.00;62443.72;5052416;28;20472;-73
2023/04/18 02:13:40;;;;;;;15.82;8.63;;;;;;;-144.57;100.00;62443.72;5036495;28;20530;-74
2023/04/18 02:16:11;;;;;;;13.88;8.95;;;;;;;-144.57;100.00;62443.72;5036452;28;20168;-73
2023/04/18 02:18:57;;;;;;;13.77;8.60;;;;;;;-144.57;100.00;62443.72;5025506;28;20521;-73
2023/04/18 02:21:23;;;;;;;20.00;9.60;;;;;;;-144.57;100.00;62443.72;5052675;28;20037;-73
2023/04/18 02:23:50;;;;;;;19.63;11.00;;;;;;;-144.57;100.00;62443.72;5019746;28;20090;-74
2023/04/18 02:26:16;;;;;;;14.90;10.55;;;;;;;-144.57;100.00;62443.72;5019619;28;20040;-73
2023/04/18 02:28:42;;;;;;;17.83;10.70;;;;;;;-144.57;100.00;62443.72;5052695;28;20060;-74
2023/04/18 02:31:13;;;;;;;17.10;10.23;;;;;;;-144.57;100.00;62443.72;5019306;28;20067;-72
2023/04/18 02:33:43;;;;;;;24.33;11.50;;;;;;;-144.57;100.00;62443.72;5056964;28;20045;-76
2023/04/18 02:36:11;;;;;;;16.08;10.23;;;;;;;-144.57;100.00;62443.72;5030566;28;20119;-75
2023/04/18 02:38:37;;;;;;;16.63;10.35;;;;;;;-144.57;100.00;62443.72;5043925;28;20064;-73
2023/04/18 02:41:03;;;;;;;18.75;10.65;;;;;;;-144.57;100.00;62443.72;5058635;28;20061;-75
2023/04/18 02:43:29;;;;;;;16.65;9.32;;;;;;;-144.57;100.00;62443.72;5061781;28;20071;-76
2023/04/18 02:45:55;;;;;;;18.38;10.20;;;;;;;-144.57;100.00;62443.72;5048709;28;20040;-72
2023/04/18 02:48:22;;;;;;;21.67;10.80;;;;;;;-144.57;100.00;62443.72;5060796;28;20048;-73
2023/04/18 02:50:49;;;;;;;20.63;11.07;;;;;;;-144.57;100.00;62443.72;5012285;28;20032;-75
2023/04/18 02:53:15;;;;;;;20.58;10.63;;;;;;;-144.57;100.00;62443.72;5062613;28;20113;-73
2023/04/18 02:55:51;;;;;;;15.18;9.55;;;;;;;-144.57;100.00;62443.72;5073291;28;20074;-73
2023/04/18 02:58:18;;;;;;;15.15;9.82;;;;;;;-144.57;100.00;62443.72;5072405;28;20087;-73
2023/04/18 03:01:04;;;;;;;13.70;9.30;;;;;;;-144.57;100.00;62443.72;5051828;28;20056;-73
2023/04/18 03:03:46;;;;;;;15.82;9.98;;;;;;;-144.57;100.00;62443.72;5071919;28;20051;-73
2023/04/18 03:06:28;;;;;;;17.38;10.25;;;;;;;-144.57;100.00;62443.72;5071932;28;20048;-74
2023/04/18 03:08:54;;;;;;;16.15;9.70;;;;;;;-144.57;100.00;62443.72;5038794;28;20049;-74
2023/04/18 03:11:22;;;;;;;14.32;9.18;;;;;;;-144.57;100.00;62443.72;5054827;28;20130;-73
2023/04/18 03:13:48;;;;;;;16.65;9.05;;;;;;;-144.57;100.00;62443.72;5055063;28;20040;-72
2023/04/18 03:16:15;;;;;;;15.60;8.95;;;;;;;-144.57;100.00;62443.72;5072019;28;20037;-73
2023/04/18 03:18:42;;;;;;;15.63;8.98;;;;;;;-144.57;100.00;62443.72;5038601;28;20186;-73
2023/04/18 03:21:08;;;;;;;18.00;10.70;;;;;;;-144.57;100.00;62443.72;5038030;28;20433;-74
2023/04/18 03:23:35;;;;;;;16.85;9.77;;;;;;;-144.57;100.00;62443.72;5054797;28;20040;-73
2023/04/18 03:26:05;;;;;;;20.92;10.38;;;;;;;-144.57;100.00;62443.72;5071782;28;20036;-73
2023/04/18 03:28:32;;;;;;;14.30;9.48;;;;;;;-144.57;100.00;62443.72;5038968;28;20394;-74
2023/04/18 03:30:59;;;;;;;16.08;10.60;;;;;;;-144.57;100.00;62443.72;5055120;28;20094;-73
2023/04/18 03:33:27;;;;;;;17.85;10.35;;;;;;;-144.57;100.00;62443.72;5054820;28;20086;-73
2023/04/18 03:36:02;;;;;;;17.52;9.82;;;;;;;-144.57;100.00;62443.72;5040987;28;20123;-73
2023/04/18 03:38:28;;;;;;;16.55;10.18;;;;;;;-144.57;100.00;62443.72;5054473;28;20151;-74
2023/04/18 03:40:54;;;;;;;16.70;9.75;;;;;;;-144.57;100.00;62443.72;5051466;28;20075;-74
2023/04/18 03:43:27;;;;;;;16.08;9.38;;;;;;;-144.57;100.00;62443.72;5034279;28;20045;-74
2023/04/18 03:45:53;;;;;;;16.17;9.77;;;;;;;-144.57;100.00;62443.72;5051004;28;20565;-73
2023/04/18 03:48:19;;;;;;;13.55;9.80;;;;;;;-144.57;100.00;62443.72;5034344;28;20556;-74
2023/04/18 03:50:46;;;;;;;17.00;10.38;;;;;;;-144.57;100.00;62443.72;5018494;28;20041;-74
2023/04/18 03:53:13;;;;;;;21.05;10.95;;;;;;;-144.57;100.00;62443.72;5017464;28;20582;-73
2023/04/18 03:55:40;;;;;;;17.33;10.43;;;;;;;-144.57;100.00;62443.72;5051106;28;20406;-73
2023/04/18 03:58:07;;;;;;;14.60;10.02;;;;;;;-144.57;100.00;62443.72;5034583;28;20043;-74
2023/04/18 04:00:33;;;;;;;14.90;10.98;;;;;;;-144.57;100.00;62443.72;5018070;28;20041;-75
2023/04/18 04:03:05;;;;;;;17.00;10.60;;;;;;;-144.57;100.00;62443.72;5050684;28;20051;-73
2023/04/18 04:05:32;;;;;;;18.50;11.13;;;;;;;-144.57;100.00;62443.72;5050642;28;20121;-72
2023/04/18 04:07:58;;;;;;;19.73;11.35;;;;;;;-144.57;100.00;62443.72;5050512;28;20043;-74
2023/04/18 04:10:24;;;;;;;22.85;12.23;;;;;;;-144.57;100.00;62443.72;5050439;28;20542;-73
2023/04/18 04:12:52;;;;;;;22.55;12.73;;;;;;;-144.57;100.00;62443.72;5033804;28;20060;-71
2023/04/18 04:15:18;;;;;;;18.83;12.10;;;;;;;-144.57;100.00;62443.72;5050807;28;20037;-74
2023/04/18 04:18:05;;;;;;;23.15;12.50;;;;;;;-144.57;100.00;62443.72;5049877;28;20061;-74
2023/04/18 04:20:34;;;;;;;21.20;11.47;;;;;;;-144.57;100.00;62443.72;5034198;28;20037;-75
2023/04/18 04:23:08;;;;;;;19.65;11.55;;;;;;;-144.57;100.00;62443.72;5033559;28;20307;-73
2023/04/18 04:25:37;;;;;;;21.27;11.98;;;;;;;-144.57;100.00;62443.72;5017380;28;20041;-73
2023/04/18 04:28:12;;;;;;;18.45;10.30;;;;;;;-144.57;100.00;62443.72;5034711;28;20414;-75
2023/04/18 04:30:54;;;;;;;19.58;11.65;;;;;;;-144.57;100.00;62443.72;5033813;28;20094;-76
2023/04/18 04:33:24;;;;;;;19.73;10.63;;;;;;;-144.57;100.00;62443.72;5032317;28;20098;-74
2023/04/18 04:35:52;;;;;;;17.80;10.68;;;;;;;-144.57;100.00;62443.72;5033616;28;20509;-72
2023/04/18 04:38:21;;;;;;;20.33;11.25;;;;;;;-144.57;100.00;62443.72;5050148;28;20041;-73
2023/04/18 04:40:48;;;;;;;21.80;12.35;;;;;;;-144.57;100.00;62443.72;5038230;28;20060;-74
2023/04/18 04:43:15;;;;;;;28.75;13.23;;;;;;;-144.57;100.00;62443.72;5053186;28;20032;-74
2023/04/18 04:45:43;;;;;;;28.45;14.18;;;;;;;-144.57;100.00;62443.72;5070102;28;20458;-74
2023/04/18 04:48:09;;;;;;;24.23;12.65;;;;;;;-144.57;100.00;62443.72;5053252;28;20425;-72
2023/04/18 04:50:37;;;;;;;19.02;12.32;;;;;;;-144.57;100.00;62443.72;5020345;28;20039;-74
2023/04/18 04:53:05;;;;;;;21.25;12.73;;;;;;;-144.57;100.00;62443.72;5053580;28;20049;-77
2023/04/18 04:55:31;;;;;;;24.33;12.82;;;;;;;-144.57;100.00;62443.72;5036754;28;20051;-72
2023/04/18 04:57:58;;;;;;;22.52;12.35;;;;;;;-144.57;100.00;62443.72;5069993;28;20036;-74
2023/04/18 05:00:34;;;;;;;24.40;12.20;;;;;;;-144.57;100.00;62443.72;5069371;28;20578;-73
2023/04/18 05:03:01;;;;;;;23.48;12.35;;;;;;;-144.57;100.00;62443.72;5053154;28;20036;-74
2023/04/18 05:05:27;;;;;;;18.88;12.20;;;;;;;-144.57;100.00;62443.72;5020420;28;20037;-70
2023/04/18 05:07:53;;;;;;;21.77;12.05;;;;;;;-144.57;100.00;62443.72;5068108;28;20051;-70
2023/04/18 05:10:20;;;;;;;21.30;12.27;;;;;;;-144.57;100.00;62443.72;5031330;28;20060;-69
2023/04/18 05:12:46;;;;;;;25.75;12.80;;;;;;;-144.57;100.00;62443.72;5058022;28;20193;-69
2023/04/18 05:15:14;;;;;;;23.08;12.05;;;;;;;-144.57;100.00;62443.72;5067394;28;20072;-67
2023/04/18 05:17:40;;;;;;;22.27;12.00;;;;;;;-144.57;100.00;62443.72;5069566;28;20040;-66
2023/04/18 05:20:07;;;;;;;19.88;11.02;;;;;;;-144.57;100.00;62443.72;5069396;28;20494;-68
2023/04/18 05:22:33;;;;;;;21.67;12.18;;;;;;;-144.57;100.00;62443.72;5052374;28;20132;-73
2023/04/18 05:24:59;;;;;;;22.38;12.30;;;;;;;-144.57;100.00;62443.72;5036820;28;20098;-72
2023/04/18 05:27:25;;;;;;;23.73;13.23;;;;;;;-144.57;100.00;62443.72;5062989;28;20037;-72
2023/04/18 05:29:51;;;;;;;23.95;12.38;;;;;;;-144.57;100.00;62443.72;5050853;28;20053;-72
2023/04/18 05:32:17;;;;;;;23.15;12.60;;;;;;;-144.57;100.00;62443.72;5069467;28;20174;-65
2023/04/18 05:34:43;;;;;;;27.20;12.73;;;;;;;-144.57;100.00;62443.72;5068713;28;20044;-64
2023/04/18 05:37:09;;;;;;;22.95;12.75;;;;;;;-144.57;100.00;62443.72;5030931;28;20040;-67
2023/04/18 05:39:35;;;;;;;27.60;13.80;;;;;;;-144.57;100.00;62443.72;5067136;28;20052;-66
2023/04/18 05:42:01;;;;;;;19.60;12.93;;;;;;;-144.57;100.00;62443.72;5066464;28;20032;-67
2023/04/18 05:44:28;;;;;;;23.20;12.52;;;;;;;-144.57;100.00;62443.72;5036605;28;20505;-67
2023/04/18 05:46:54;;;;;;;19.42;12.60;;;;;;;-144.57;100.00;62443.72;5072273;28;20150;-65
2023/04/18 05:49:20;;;;;;;23.85;13.20;;;;;;;-144.57;100.00;62443.72;5072680;28;20082;-65
2023/04/18 05:51:48;;;;;;;33.55;13.35;;;;;;;-144.57;100.00;62443.72;5053672;28;20135;-65
2023/04/18 05:54:20;;;;;;;20.42;12.55;;;;;;;-144.57;100.00;62443.72;5071311;28;20458;-63
2023/04/18 05:56:46;;;;;;;26.00;13.18;;;;;;;-144.57;100.00;62443.72;5062937;28;20044;-65
2023/04/18 05:59:12;;;;;;;28.88;13.05;;;;;;;-144.57;100.00;62443.72;5052077;28;20045;-66
2023/04/18 06:01:38;;;;;;;26.70;13.52;;;;;;;-144.57;100.00;62443.72;5050688;28;20344;-66
2023/04/18 06:04:04;;;;;;;23.30;13.35;;;;;;;-144.57;100.00;62443.72;5050166;28;20246;-65
2023/04/18 06:06:30;;;;;;;24.17;13.95;;;;;;;-144.57;100.00;62443.72;5061175;28;20242;-64
2023/04/18 06:08:56;;;;;;;22.48;13.32;;;;;;;-144.57;100.00;62443.72;5051872;28;20048;-65
2023/04/18 06:11:21;;;;;;;26.52;13.18;;;;;;;-144.57;100.00;62443.72;5051256;28;20429;-66
2023/04/18 06:13:47;;;;;;;26.13;13.98;;;;;;;-144.57;100.00;62443.72;5065166;28;20444;-65
2023/04/18 06:16:13;;;;;;;27.60;15.05;;;;;;;-144.57;100.00;62443.72;5066841;28;20028;-65
2023/04/18 06:18:39;;;;;;;24.08;14.40;;;;;;;-144.57;100.00;62443.72;5059961;28;20403;-67
2023/04/18 06:21:05;;;;;;;21.42;13.27;;;;;;;-144.57;100.00;62443.72;5060560;28;20032;-66
2023/04/18 06:23:31;;;;;;;25.17;13.18;;;;;;;-144.57;100.00;62443.72;5058619;28;20041;-65
2023/04/18 06:25:57;;;;;;;25.42;13.60;;;;;;;-144.57;100.00;62443.72;5059997;28;20036;-65
2023/04/18 06:28:23;;;;;;;25.20;12.70;;;;;;;-144.57;100.00;62443.72;5041516;28;20045;-64
2023/04/18 06:30:49;;;;;;;22.65;12.88;;;;;;;-144.57;100.00;62443.72;5057337;28;20029;-65
2023/04/18 06:33:15;;;;;;;22.95;12.30;;;;;;;-144.57;100.00;62443.72;5058486;28;20063;-65
2023/04/18 06:35:40;;;;;;;25.05;13.05;;;;;;;-144.57;100.00;62443.72;5064914;28;20044;-67
2023/04/18 06:38:07;;;;;;;16.77;11.90;;;;;;;-144.57;100.00;62443.72;5070116;28;20437;-66
2023/04/18 06:40:33;;;;;;;25.13;12.13;;;;;;;-144.57;100.00;62443.72;5070146;28;20044;-64
2023/04/18 06:42:59;;;;;;;23.60;12.98;;;;;;;-144.57;100.00;62443.72;5068271;28;20632;-65
2023/04/18 06:45:25;;;;;;;28.77;13.00;;;;;;;-144.57;100.00;62443.72;5051924;28;20131;-65
2023/04/18 06:47:51;;;;;;;23.63;13.80;;;;;;;-144.57;100.00;62443.72;5068509;28;20556;-65
2023/04/18 06:50:17;;;;;;;22.55;13.68;;;;;;;-144.57;100.00;62443.72;5067864;28;20067;-65
2023/04/18 06:52:44;;;;;;;20.73;12.90;;;;;;;-144.57;100.00;62443.72;5069358;28;20044;-65
2023/04/18 06:55:13;;;;;;;25.20;13.88;;;;;;;-144.57;100.00;62443.72;5035057;28;20776;-65
2023/04/18 06:57:40;;;;;;;21.15;13.45;;;;;;;-144.57;100.00;62443.72;5066345;28;20050;-64
2023/04/18 07:00:07;;;;;;;29.95;13.32;;;;;;;-144.57;100.00;62443.72;5068718;28;20048;-64
2023/04/18 07:02:38;;;;;;;27.42;13.57;;;;;;;-144.57;100.00;62443.72;5057199;28;20029;-65
2023/04/18 07:05:04;;;;;;;21.23;13.40;;;;;;;-144.57;100.00;62443.72;5054796;28;20077;-63
2023/04/18 07:07:31;;;;;;;22.88;13.80;;;;;;;-144.57;100.00;62443.72;5031020;28;20132;-65
2023/04/18 07:09:58;;;;;;;27.80;15.13;;;;;;;-144.57;100.00;62443.72;5047853;28;20043;-64
2023/04/18 07:12:23;;;;;;;20.05;13.15;;;;;;;-144.57;100.00;62443.72;5014517;28;20500;-65
2023/04/18 07:14:50;;;;;;;29.48;14.52;;;;;;;-144.57;100.00;62443.72;5047884;28;20041;-65
2023/04/18 07:17:16;;;;;;;24.45;14.38;;;;;;;-144.57;100.00;62443.72;5048159;28;20045;-66
2023/04/18 07:19:42;;;;;;;23.17;15.13;;;;;;;-144.57;100.00;62443.72;5048764;28;20087;-64
2023/04/18 07:22:08;;;;;;;24.08;14.40;;;;;;;-144.57;100.00;62443.72;5014464;28;20420;-65
2023/04/18 07:24:35;;;;;;;36.25;14.68;;;;;;;-144.57;100.00;62443.72;5048420;28;20052;-64
2023/04/18 07:27:02;;;;;;;23.50;13.25;;;;;;;-144.57;100.00;62443.72;5047302;28;20118;-67
2023/04/18 07:29:27;;;;;;;22.98;13.52;;;;;;;-144.57;100.00;62443.72;5052477;28;20131;-66
2023/04/18 07:31:53;;;;;;;21.38;13.23;;;;;;;-144.57;100.00;62443.72;5047928;28;20418;-65
2023/04/18 07:34:20;;;;;;;24.20;13.60;;;;;;;-144.57;100.00;62443.72;5047357;28;20037;-65
2023/04/18 07:36:46;;;;;;;19.10;12.65;;;;;;;-144.57;100.00;62443.72;5052144;28;20600;-67
2023/04/18 07:39:12;;;;;;;21.88;12.93;;;;;;;-144.57;100.00;62443.72;5047603;28;20052;-67
2023/04/18 07:41:37;;;;;;;20.90;12.77;;;;;;;-144.57;100.00;62443.72;5056280;28;20041;-65
2023/04/18 07:44:03;;;;;;;23.25;12.55;;;;;;;-144.57;100.00;62443.72;5068733;28;20099;-66
2023/04/18 07:46:31;;;;;;;21.90;13.27;;;;;;;-144.57;100.00;62443.72;5048890;28;20039;-66
2023/04/18 07:48:57;;;;;;;20.95;12.90;;;;;;;-144.57;100.00;62443.72;5066359;28;20045;-66
2023/04/18 07:51:30;;;;;;;19.70;11.70;;;;;;;-144.57;100.00;62443.72;5066087;28;20048;-64
2023/04/18 07:53:59;;;;;;;21.10;11.38;;;;;;;-144.57;100.00;62443.72;5069209;28;20044;-66
2023/04/18 07:56:28;;;;;;;19.25;10.93;;;;;;;-144.57;100.00;62443.72;5033996;28;20044;-67
2023/04/18 07:58:54;;;;;;;18.02;11.30;;;;;;;-144.57;100.00;62443.72;5043621;28;20037;-66
2023/04/18 08:01:23;;;;;;;20.85;12.60;;;;;;;-144.57;100.00;62443.72;5048174;28;20087;-67
2023/04/18 08:03:50;;;;;;;21.15;11.68;;;;;;;-144.57;100.00;62443.72;5049211;28;20402;-66
2023/04/18 08:06:16;;;;;;;25.90;11.73;;;;;;;-144.57;100.00;62443.72;5046697;28;20426;-68
2023/04/18 08:08:42;;;;;;;65.10;15.35;;;;;;;-144.57;100.00;62443.72;5048797;28;20068;-66
2023/04/18 08:11:08;;;;;;;23.80;10.80;;;;;;;-144.57;100.00;62443.72;5047636;28;20091;-67
2023/04/18 08:13:34;;;;;;;22.98;11.38;;;;;;;-144.57;100.00;62443.72;5030978;28;20266;-64
2023/04/18 08:16:01;;;;;;;20.45;10.52;;;;;;;-144.57;100.00;62443.72;5048883;28;20048;-66
2023/04/18 08:18:27;;;;;;;15.02;10.07;;;;;;;-144.57;100.00;62443.72;5047679;28;20302;-66
2023/04/18 08:20:52;;;;;;;17.08;10.55;;;;;;;-144.57;100.00;62443.72;5050334;28;20045;-66
2023/04/18 08:23:25;;;;;;;18.38;10.65;;;;;;;-144.57;100.00;62443.72;5049013;28;20379;-70
2023/04/18 08:25:53;;;;;;;20.20;10.57;;;;;;;-144.57;100.00;62443.72;5050288;28;20098;-68
2023/04/18 08:28:18;;;;;;;20.23;10.75;;;;;;;-144.57;100.00;62443.72;5048173;28;20463;-70
2023/04/18 08:30:47;;;;;;;22.85;10.27;;;;;;;-144.57;100.00;62443.72;5066985;28;20104;-68
2023/04/18 08:33:14;;;;;;;21.13;10.20;;;;;;;-144.57;100.00;62443.72;5066475;28;20044;-68
2023/04/18 08:35:40;;;;;;;19.30;10.85;;;;;;;-144.57;100.00;62443.72;5065575;28;20033;-70
2023/04/18 08:38:06;;;;;;;17.40;9.93;;;;;;;-144.57;100.00;62443.72;5051398;28;20044;-67
2023/04/18 08:40:32;;;;;;;17.33;10.80;;;;;;;-144.57;100.00;62443.72;5066257;28;20051;-68
2023/04/18 08:43:01;;;;;;;20.77;10.32;;;;;;;-144.57;100.00;62443.72;5048972;28;20037;-67
2023/04/18 08:45:27;;;;;;;16.20;10.55;;;;;;;-144.57;100.00;62443.72;5050102;28;20078;-67
2023/04/18 08:47:54;;;;;;;15.98;10.35;;;;;;;-144.57;100.00;62443.72;5065025;28;20166;-69
2023/04/18 08:50:20;;;;;;;22.77;10.77;;;;;;;-144.57;100.00;62443.72;5050611;28;20044;-69
2023/04/18 08:52:48;;;;;;;21.67;10.80;;;;;;;-144.57;100.00;62443.72;5066676;28;20177;-69
2023/04/18 08:55:15;;;;;;;20.02;10.35;;;;;;;-144.57;100.00;62443.72;5033662;28;20051;-68
2023/04/18 08:57:40;;;;;;;14.48;9.88;;;;;;;-144.57;100.00;62443.72;5066750;28;20452;-70
2023/04/18 09:00:10;;;;;;;25.25;11.15;;;;;;;-144.57;100.00;62443.72;5066677;28;20044;-69
2023/04/18 09:02:41;;;;;;;21.52;11.55;;;;;;;-144.57;100.00;62443.72;5064580;28;20047;-68
2023/04/18 09:05:20;;;;;;;19.15;9.60;;;;;;;-144.57;100.00;62443.72;5030764;28;20059;-69
2023/04/18 09:07:47;;;;;;;17.95;9.55;;;;;;;-144.57;100.00;62443.72;5044777;28;20048;-69
2023/04/18 09:10:32;;;;;;;16.95;9.50;;;;;;;-144.57;100.00;62443.72;5045609;28;20033;-69
2023/04/18 09:13:01;;;;;;;17.17;10.02;;;;;;;-144.57;100.00;62443.72;5047293;28;20099;-71
2023/04/18 09:15:28;;;;;;;17.40;10.00;;;;;;;-144.57;100.00;62443.72;5049548;28;20090;-70
2023/04/18 09:17:56;;;;;;;20.60;9.95;;;;;;;-144.57;100.00;62443.72;5045788;28;20033;-70
2023/04/18 09:21:07;;;;;;;;;;;;;;;;;;;;;
2023/04/18 09:23:42;;;;;;;19.52;9.85;;;;;;;-144.57;100.00;62443.72;5031036;28;20052;-69
2023/04/18 09:26:08;;;;;;;14.60;9.10;;;;;;;-144.57;100.00;62443.72;5069454;28;20098;-70
2023/04/18 09:28:36;;;;;;;15.00;9.23;;;;;;;-144.57;100.00;62443.72;5053773;28;20198;-68
2023/04/18 09:31:03;;;;;;;17.90;9.48;;;;;;;-144.57;100.00;62443.72;5034646;28;20043;-69
2023/04/18 09:33:33;;;;;;;13.90;9.02;;;;;;;-144.57;100.00;62443.72;5068895;28;20072;-69
2023/04/18 09:36:25;;;;;;;14.13;8.70;;;;;;;-144.57;100.00;62443.72;5052346;28;20037;-69
2023/04/18 09:38:52;;;;;;;14.68;9.25;;;;;;;-144.57;100.00;62443.72;5051018;28;20048;-68
2023/04/18 09:41:18;;;;;;;14.75;10.18;;;;;;;-144.57;100.00;62443.72;5059509;28;20037;-69
2023/04/18 09:43:44;;;;;;;12.85;9.27;;;;;;;-144.57;100.00;62443.72;5068362;28;20106;-68
2023/04/18 09:46:11;;;;;;;15.55;9.77;;;;;;;-144.57;100.00;62443.72;5071622;28;20316;-66
2023/04/18 09:48:38;;;;;;;11.77;8.48;;;;;;;-144.57;100.00;62443.72;5071078;28;20141;-70
2023/04/18 09:51:06;;;;;;;14.43;9.52;;;;;;;-144.57;100.00;62443.72;5054144;28;20048;-68
2023/04/18 09:53:49;;;;;;;18.30;9.90;;;;;;;-144.57;100.00;62443.72;5070173;28;20048;-67
2023/04/18 09:56:27;;;;;;;20.20;10.00;;;;;;;-144.57;100.00;62443.72;5070901;28;20036;-65
2023/04/18 09:59:10;;;;;;;15.77;10.18;;;;;;;-144.57;100.00;62443.72;5051670;28;20098;-66
2023/04/18 10:02:03;;;;;;;20.48;10.75;;;;;;;-144.57;100.00;62443.72;5054620;28;20494;-66
2023/04/18 10:04:38;;;;;;;17.48;10.57;;;;;;;-144.57;100.00;62443.72;5034078;28;20056;-66
2023/04/18 10:07:05;;;;;;;18.77;10.73;;;;;;;-144.57;100.00;62443.72;5052413;28;20040;-65
2023/04/18 10:09:32;;;;;;;19.30;10.90;;;;;;;-144.57;100.00;62443.72;5069640;28;20072;-67
2023/04/18 10:11:58;;;;;;;18.63;11.05;;;;;;;-144.57;100.00;62443.72;5068988;28;20033;-67
2023/04/18 10:14:24;;;;;;;22.55;11.43;;;;;;;-144.57;100.00;62443.72;5071924;28;20156;-67
2023/04/18 10:16:50;;;;;;;18.63;11.70;;;;;;;-144.57;100.00;62443.72;5072384;28;20571;-67
2023/04/18 10:19:24;;;;;;;20.05;10.75;;;;;;;-144.57;100.00;62443.72;5072389;28;20043;-68
2023/04/18 10:21:57;;;;;;;18.85;10.63;;;;;;;-144.57;100.00;62443.72;5073624;28;20615;-67
2023/04/18 10:24:46;;;;;;;19.00;10.63;;;;;;;-144.57;100.00;62443.72;5072071;28;20041;-67
2023/04/18 10:27:13;;;;;;;18.30;10.10;;;;;;;-144.57;100.00;62443.72;5073283;28;20068;-68
2023/04/18 10:29:52;;;;;;;16.15;9.30;;;;;;;-144.57;100.00;62443.72;5071561;28;20140;-67
2023/04/18 10:32:22;;;;;;;18.27;9.40;;;;;;;-144.57;100.00;62443.72;5071935;28;20508;-68
2023/04/18 10:34:48;;;;;;;16.92;9.95;;;;;;;-144.57;100.00;62443.72;5072209;28;20049;-67
2023/04/18 10:37:14;;;;;;;15.57;9.70;;;;;;;-144.57;100.00;62443.72;5072057;28;20039;-67
2023/04/18 10:39:48;;;;;;;19.40;10.05;;;;;;;-144.57;100.00;62443.72;5071626;28;20041;-66
2023/04/18 10:42:13;;;;;;;15.60;9.45;;;;;;;-144.57;100.00;62443.72;5071394;28;20071;-67
2023/04/18 10:44:39;;;;;;;11.93;8.13;;;;;;;-144.57;100.00;62443.72;5071927;28;20072;-67
2023/04/18 10:47:07;;;;;;;12.80;7.63;;;;;;;-144.57;100.00;62443.72;5073137;28;20123;-68
2023/04/18 10:49:36;;;;;;;14.23;7.68;;;;;;;-144.57;100.00;62443.72;5073419;28;20048;-67
2023/04/18 10:52:04;;;;;;;18.27;7.45;;;;;;;-144.57;100.00;62443.72;5073203;28;20032;-66
2023/04/18 10:54:37;;;;;;;11.13;7.90;;;;;;;-144.57;100.00;62443.72;5055332;28;20044;-66
2023/04/18 10:57:06;;;;;;;10.98;7.00;;;;;;;-144.57;100.00;62443.72;5073131;28;20044;-66
2023/04/18 10:59:36;;;;;;;13.38;7.97;;;;;;;-144.57;100.00;62443.72;5071562;28;20049;-67
2023/04/18 11:02:31;;;;;;;11.30;7.80;;;;;;;-144.57;100.00;62443.72;5071767;28;20060;-67